Time;durP1;ratioP1;P1;durP2;ratioP2;P2;SDS_P1;SDS_P2;PMS_P1;PMS_P2;Temp;Humidity;BMP_temperature;BMP_pressure;BME280_temperature;BME280_humidity;BME280_pressure;Samples;Min_cycle;Max_cycle;Signal;HPM_P1;HPM_P2
2022/04/12 00:00:34;;;;;;;17.40;4.22;;;;;;;9.35;100.00;99475.00;5064175;28;20426;-80
2022/04/12 00:02:59;;;;;;;11.57;3.47;;;;;;;9.41;100.00;99469.66;5055219;28;20044;-81
2022/04/12 00:05:25;;;;;;;8.68;3.17;;;;;;;9.47;100.00;99476.06;5076812;28;20032;-80
2022/04/12 00:07:51;;;;;;;15.90;3.65;;;;;;;9.48;100.00;99467.00;5062819;28;20119;-81
2022/04/12 00:10:16;;;;;;;17.23;5.60;;;;;;;9.40;100.00;99462.63;5033712;28;20047;-80
2022/04/12 00:12:43;;;;;;;16.13;4.10;;;;;;;9.49;100.00;99470.50;5049056;28;20080;-81
2022/04/12 00:15:10;;;;;;;13.05;4.20;;;;;;;9.53;100.00;99472.59;5061700;28;20084;-80
2022/04/12 00:20:21;;;;;;;16.92;4.50;;;;;;;9.48;100.00;99471.56;5043248;28;20037;-80
2022/04/12 00:22:47;;;;;;;10.23;3.95;;;;;;;9.31;100.00;99482.59;5035098;28;20028;-80
2022/04/12 00:25:13;;;;;;;14.40;3.83;;;;;;;9.11;100.00;99490.56;5064759;28;20371;-81
2022/04/12 00:27:40;;;;;;;17.63;4.47;;;;;;;8.95;100.00;99478.28;5063404;28;20102;-80
2022/04/12 00:30:12;;;;;;;12.27;3.55;;;;;;;8.87;100.00;99472.25;5059249;28;20029;-80
2022/04/12 00:32:37;;;;;;;15.98;4.30;;;;;;;8.84;100.00;99486.88;5051242;28;20040;-80
2022/04/12 00:35:04;;;;;;;11.50;4.07;;;;;;;8.83;100.00;99479.84;5039525;28;20044;-80
2022/04/12 00:37:30;;;;;;;20.88;4.75;;;;;;;8.92;100.00;99485.91;5049000;28;20552;-80
2022/04/12 00:39:56;;;;;;;13.43;4.07;;;;;;;8.94;100.00;99475.78;5063076;28;20044;-79
2022/04/12 00:42:21;;;;;;;6.97;2.78;;;;;;;9.03;100.00;99486.16;5029734;28;20040;-79
2022/04/12 00:44:47;;;;;;;18.73;3.90;;;;;;;9.09;100.00;99489.09;5062339;28;20060;-80
2022/04/12 00:47:14;;;;;;;14.70;3.75;;;;;;;9.13;100.00;99480.47;5044238;28;20036;-80
2022/04/12 00:49:40;;;;;;;23.02;3.97;;;;;;;9.18;100.00;99485.22;5066628;28;20036;-80
2022/04/12 00:52:10;;;;;;;14.00;4.22;;;;;;;9.19;100.00;99493.06;5045054;28;20028;-80
2022/04/12 00:54:37;;;;;;;14.35;4.53;;;;;;;9.24;100.00;99493.31;5031592;28;20092;-80
2022/04/12 00:57:03;;;;;;;16.75;4.47;;;;;;;9.29;100.00;99491.88;5044760;28;20047;-80
2022/04/12 00:59:31;;;;;;;14.32;3.92;;;;;;;9.33;100.00;99493.97;5061583;28;20043;-80
2022/04/12 01:01:57;;;;;;;16.15;4.63;;;;;;;9.38;100.00;99493.38;5061554;28;20028;-80
2022/04/12 01:04:23;;;;;;;12.85;3.65;;;;;;;9.39;100.00;99498.56;5052225;28;20040;-79
2022/04/12 01:06:49;;;;;;;18.52;4.50;;;;;;;9.44;100.00;99492.56;5051797;28;20040;-80
2022/04/12 01:09:15;;;;;;;24.13;5.50;;;;;;;9.49;100.00;99487.44;5066188;28;20072;-80
2022/04/12 01:11:43;;;;;;;9.98;4.15;;;;;;;9.56;100.00;99484.78;5067950;28;20032;-80
2022/04/12 01:14:09;;;;;;;15.95;4.97;;;;;;;9.57;100.00;99487.25;5067367;28;20492;-80
2022/04/12 01:16:40;;;;;;;12.55;4.03;;;;;;;9.62;100.00;99492.84;5068293;28;20044;-81
2022/04/12 01:19:06;;;;;;;13.57;3.33;;;;;;;9.56;100.00;99474.06;5069715;28;20536;-80
2022/04/12 01:21:36;;;;;;;16.67;4.95;;;;;;;9.61;100.00;99488.53;5034398;28;20032;-80
2022/04/12 01:24:05;;;;;;;21.83;5.57;;;;;;;9.54;100.00;99468.88;5031349;28;20035;-81
2022/04/12 01:26:32;;;;;;;13.48;3.35;;;;;;;9.58;100.00;99490.75;5071167;28;20048;-80
2022/04/12 01:28:58;;;;;;;23.25;4.18;;;;;;;9.56;100.00;99493.66;5066815;28;20056;-80
2022/04/12 01:31:25;;;;;;;26.17;5.22;;;;;;;9.57;100.00;99484.56;5052878;28;20068;-79
2022/04/12 01:33:51;;;;;;;28.55;5.47;;;;;;;9.56;100.00;99488.31;5051554;28;20075;-79
2022/04/12 01:36:17;;;;;;;16.63;4.75;;;;;;;9.45;100.00;99475.47;5066837;28;20054;-80
2022/04/12 01:38:42;;;;;;;18.65;4.25;;;;;;;9.50;100.00;99483.75;5050582;28;20368;-80
2022/04/12 01:41:08;;;;;;;19.48;5.00;;;;;;;9.46;100.00;99499.41;5063546;28;20078;-80
2022/04/12 01:43:34;;;;;;;19.08;4.53;;;;;;;9.48;100.00;99501.88;5065560;28;20060;-82
2022/04/12 01:45:59;;;;;;;21.05;5.30;;;;;;;9.44;100.00;99503.31;5031696;28;20039;-80
2022/04/12 01:48:25;;;;;;;20.98;4.25;;;;;;;9.42;100.00;99500.84;5030959;28;20428;-80
2022/04/12 01:50:51;;;;;;;16.65;3.72;;;;;;;9.37;100.00;99502.47;5047393;28;20024;-80
2022/04/12 01:53:16;;;;;;;18.45;4.00;;;;;;;9.38;100.00;99496.88;5064677;28;20033;-80
2022/04/12 01:55:42;;;;;;;15.85;3.42;;;;;;;9.38;100.00;99501.44;5034718;28;20410;-80
2022/04/12 01:58:07;;;;;;;16.48;4.35;;;;;;;9.29;100.00;99492.72;5066950;28;20154;-79
2022/04/12 02:00:35;;;;;;;11.40;3.50;;;;;;;9.39;100.00;99505.75;5061990;28;20064;-79
2022/04/12 02:03:01;;;;;;;14.65;3.58;;;;;;;9.44;100.00;99503.31;5061758;28;20039;-79
2022/04/12 02:05:26;;;;;;;19.38;6.63;;;;;;;9.48;100.00;99498.38;5033411;28;20036;-79
2022/04/12 02:07:52;;;;;;;15.60;3.97;;;;;;;9.37;100.00;99494.41;5062065;28;20449;-79
2022/04/12 02:10:20;;;;;;;21.70;4.60;;;;;;;9.46;100.00;99506.63;5048981;28;20029;-80
2022/04/12 02:12:45;;;;;;;29.27;4.68;;;;;;;9.46;100.00;99502.06;5065639;28;20543;-79
2022/04/12 02:15:11;;;;;;;19.67;4.93;;;;;;;9.51;100.00;99501.50;5044029;28;20115;-80
2022/04/12 02:17:36;;;;;;;26.60;4.82;;;;;;;9.47;100.00;99497.53;5061582;28;20040;-79
2022/04/12 02:20:02;;;;;;;17.00;4.47;;;;;;;9.42;100.00;99505.34;5048246;28;20037;-80
2022/04/12 02:22:28;;;;;;;21.95;5.18;;;;;;;9.41;100.00;99512.56;5065984;28;20058;-79
2022/04/12 02:24:53;;;;;;;22.90;4.47;;;;;;;9.39;100.00;99508.44;5047765;28;20139;-79
2022/04/12 02:27:19;;;;;;;19.70;4.80;;;;;;;9.39;100.00;99509.28;5044814;28;20047;-81
2022/04/12 02:29:44;;;;;;;13.77;4.22;;;;;;;9.37;100.00;99507.84;5030452;28;20135;-80
2022/04/12 02:32:10;;;;;;;21.13;5.07;;;;;;;9.24;100.00;99492.50;5045398;28;20064;-79
2022/04/12 02:34:36;;;;;;;26.20;4.85;;;;;;;9.29;100.00;99502.59;5048627;28;20485;-79
2022/04/12 02:37:01;;;;;;;23.05;4.65;;;;;;;9.29;100.00;99502.59;5031864;28;20033;-80
2022/04/12 02:39:27;;;;;;;24.73;4.35;;;;;;;9.13;100.00;99495.69;5065052;28;20036;-80
2022/04/12 02:41:52;;;;;;;15.85;4.13;;;;;;;9.01;100.00;99495.44;5064482;28;20487;-80
2022/04/12 02:44:18;;;;;;;14.10;3.80;;;;;;;8.99;100.00;99497.47;5046976;28;20029;-79
2022/04/12 02:46:43;;;;;;;11.00;3.35;;;;;;;8.89;100.00;99495.16;5058111;28;20040;-80
2022/04/12 02:49:09;;;;;;;19.27;3.90;;;;;;;8.96;100.00;99498.69;5046747;28;20040;-79
2022/04/12 02:51:34;;;;;;;19.05;4.43;;;;;;;8.91;100.00;99489.59;5046088;28;20064;-79
2022/04/12 02:54:00;;;;;;;17.50;3.83;;;;;;;8.82;100.00;99480.06;5047138;28;20466;-79
2022/04/12 02:56:26;;;;;;;6.70;2.50;;;;;;;8.75;100.00;99485.34;5032023;28;20390;-80
2022/04/12 02:58:51;;;;;;;15.68;4.00;;;;;;;8.70;100.00;99485.94;5064393;28;20111;-80
2022/04/12 03:01:19;;;;;;;11.13;3.25;;;;;;;8.53;100.00;99493.44;5060212;28;20037;-80
2022/04/12 03:03:45;;;;;;;15.15;2.63;;;;;;;8.42;100.00;99496.66;5061344;28;20039;-79
2022/04/12 03:06:10;;;;;;;14.85;3.13;;;;;;;8.38;100.00;99492.66;5048286;28;20020;-81
2022/04/12 03:08:36;;;;;;;14.07;3.42;;;;;;;8.42;100.00;99501.19;5033155;28;20036;-79
2022/04/12 03:11:02;;;;;;;15.75;4.63;;;;;;;8.48;100.00;99500.41;5081392;28;20036;-80
2022/04/12 03:13:27;;;;;;;14.15;3.95;;;;;;;8.61;100.00;99492.47;5051617;28;20501;-79
2022/04/12 03:15:53;;;;;;;20.60;4.00;;;;;;;8.69;100.00;99480.78;5044894;28;20040;-80
2022/04/12 03:18:19;;;;;;;17.60;3.88;;;;;;;8.68;100.00;99482.66;5047302;28;20122;-80
2022/04/12 03:20:45;;;;;;;11.50;3.70;;;;;;;8.75;100.00;99496.91;5048546;28;20089;-80
2022/04/12 03:23:16;;;;;;;17.70;3.83;;;;;;;8.70;100.00;99491.28;5048858;28;20039;-79
2022/04/12 03:25:50;;;;;;;24.52;4.55;;;;;;;8.66;100.00;99482.00;5043049;28;20037;-80
2022/04/12 03:28:16;;;;;;;20.38;3.72;;;;;;;8.69;100.00;99497.69;5052327;28;20037;-79
2022/04/12 03:30:42;;;;;;;18.52;4.15;;;;;;;8.69;100.00;99484.28;5060845;28;20032;-80
2022/04/12 03:33:07;;;;;;;17.38;4.88;;;;;;;8.65;100.00;99483.00;5045867;28;20067;-80
2022/04/12 03:35:33;;;;;;;17.83;3.72;;;;;;;8.43;100.00;99482.22;5063435;28;20040;-79
2022/04/12 03:38:01;;;;;;;15.68;3.47;;;;;;;8.30;100.00;99479.41;5044421;28;20470;-79
2022/04/12 03:40:31;;;;;;;13.45;3.00;;;;;;;8.15;100.00;99474.94;5043159;28;20040;-80
2022/04/12 03:43:04;;;;;;;14.68;3.67;;;;;;;8.10;100.00;99477.38;5061046;28;20032;-80
2022/04/12 03:45:31;;;;;;;21.58;3.40;;;;;;;8.01;100.00;99477.69;5030223;28;20044;-80
2022/04/12 03:47:57;;;;;;;6.70;2.10;;;;;;;7.95;100.00;99481.13;5061825;28;20029;-79
2022/04/12 03:50:23;;;;;;;12.75;3.47;;;;;;;8.00;100.00;99486.75;5067566;28;20047;-79
2022/04/12 03:52:49;;;;;;;19.30;3.85;;;;;;;7.71;100.00;99456.38;5044962;28;20040;-79
2022/04/12 03:55:15;;;;;;;13.90;3.58;;;;;;;7.63;100.00;99480.56;5045740;28;21214;-79
2022/04/12 03:57:41;;;;;;;8.88;3.00;;;;;;;7.39;100.00;99463.81;5058495;28;20052;-80
2022/04/12 04:00:08;;;;;;;10.13;3.05;;;;;;;7.37;100.00;99487.25;5047208;28;20136;-79
2022/04/12 04:02:36;;;;;;;13.95;3.70;;;;;;;7.16;100.00;99496.00;5032055;28;20094;-79
2022/04/12 04:05:05;;;;;;;14.07;3.63;;;;;;;6.88;100.00;99482.47;5062771;28;20247;-79
2022/04/12 04:07:30;;;;;;;9.38;4.03;;;;;;;6.85;100.00;99504.19;5035538;28;20131;-79
2022/04/12 04:09:56;;;;;;;5.22;1.58;;;;;;;6.79;100.00;99507.59;5076761;28;20115;-79
2022/04/12 04:12:22;;;;;;;8.77;2.97;;;;;;;6.69;100.00;99491.81;5036347;28;20458;-80
2022/04/12 04:14:48;;;;;;;8.77;2.85;;;;;;;6.75;100.00;99515.16;5065379;28;20028;-80
2022/04/12 04:17:14;;;;;;;19.45;4.38;;;;;;;6.68;100.00;99524.06;5036357;28;20494;-79
2022/04/12 04:19:40;;;;;;;0.50;0.50;;;;;;;6.54;100.00;99517.69;5053808;28;20043;-79
2022/04/12 04:22:05;;;;;;;11.45;2.90;;;;;;;6.68;100.00;99514.22;5051628;28;21932;-79
2022/04/12 04:24:31;;;;;;;13.80;3.30;;;;;;;6.64;100.00;99491.53;5063370;28;20037;-79
2022/04/12 04:26:57;;;;;;;24.10;4.05;;;;;;;6.72;100.00;99507.50;5059560;28;20363;-79
2022/04/12 04:29:23;;;;;;;15.75;3.72;;;;;;;6.66;100.00;99510.88;5044780;28;20032;-79
2022/04/12 04:31:51;;;;;;;11.13;4.35;;;;;;;6.68;100.00;99518.72;5052036;28;20040;-78
2022/04/12 04:34:17;;;;;;;11.32;3.55;;;;;;;6.68;100.00;99519.56;5085921;28;20036;-80
2022/04/12 04:36:42;;;;;;;9.63;2.80;;;;;;;6.66;100.00;99526.91;5047691;28;20096;-79
2022/04/12 04:39:08;;;;;;;10.02;3.33;;;;;;;6.56;100.00;99510.31;5034864;28;20040;-80
2022/04/12 04:41:34;;;;;;;11.70;2.60;;;;;;;6.60;100.00;99523.13;5052608;28;20033;-79
2022/04/12 04:44:00;;;;;;;8.15;2.60;;;;;;;6.62;100.00;99525.63;5035536;28;20056;-79
2022/04/12 04:46:26;;;;;;;13.73;3.22;;;;;;;6.55;100.00;99524.69;5065878;28;20040;-79
2022/04/12 04:48:51;;;;;;;5.65;2.78;;;;;;;6.50;100.00;99521.72;5036373;28;20040;-80
2022/04/12 04:51:17;;;;;;;11.38;3.03;;;;;;;6.43;100.00;99516.28;5046900;28;20078;-79
2022/04/12 04:53:49;;;;;;;9.73;2.80;;;;;;;6.49;100.00;99518.22;5065290;28;20033;-82
2022/04/12 04:56:16;;;;;;;6.57;2.50;;;;;;;6.55;100.00;99520.16;5072935;28;20502;-79
2022/04/12 04:58:42;;;;;;;9.52;2.60;;;;;;;6.63;100.00;99526.47;5068178;28;20128;-80
2022/04/12 05:01:08;;;;;;;9.25;2.90;;;;;;;6.64;100.00;99509.41;5045877;28;20036;-79
2022/04/12 05:03:33;;;;;;;12.88;2.63;;;;;;;6.70;100.00;99516.72;5065887;28;20694;-80
2022/04/12 05:05:59;;;;;;;11.77;3.78;;;;;;;6.70;100.00;99511.38;5048825;28;20036;-80
2022/04/12 05:08:24;;;;;;;12.15;2.80;;;;;;;6.65;100.00;99524.44;5047238;28;20052;-80
2022/04/12 05:10:51;;;;;;;9.52;3.22;;;;;;;6.58;100.00;99518.97;5059017;28;20092;-79
2022/04/12 05:13:16;;;;;;;10.52;3.33;;;;;;;6.74;100.00;99529.50;5048191;28;20113;-79
2022/04/12 05:15:42;;;;;;;8.27;2.55;;;;;;;6.92;100.00;99547.06;5068918;28;20049;-80
2022/04/12 05:18:09;;;;;;;12.20;2.83;;;;;;;6.92;100.00;99545.22;5051765;28;20057;-79
2022/04/12 05:20:34;;;;;;;8.98;2.90;;;;;;;6.91;100.00;99545.41;5027046;28;20040;-79
2022/04/12 05:23:00;;;;;;;9.77;2.70;;;;;;;6.93;100.00;99543.38;5060136;28;20095;-79
2022/04/12 05:25:25;;;;;;;6.82;2.30;;;;;;;7.00;100.00;99547.81;5057634;28;20032;-80
2022/04/12 05:27:51;;;;;;;10.02;3.60;;;;;;;7.12;100.00;99553.53;5061768;28;20036;-79
2022/04/12 05:30:21;;;;;;;11.40;2.72;;;;;;;7.12;100.00;99550.03;5034611;28;20032;-80
2022/04/12 05:32:47;;;;;;;11.20;3.15;;;;;;;7.10;100.00;99549.41;5061797;28;20032;-80
2022/04/12 05:35:13;;;;;;;11.30;3.38;;;;;;;7.23;100.00;99546.91;5059836;28;20024;-80
2022/04/12 05:37:52;;;;;;;9.93;2.90;;;;;;;7.40;100.00;99556.41;5056141;28;20039;-80
2022/04/12 05:40:19;;;;;;;15.15;3.05;;;;;;;7.49;100.00;99568.69;5062860;28;20972;-80
2022/04/12 05:42:45;;;;;;;14.95;3.20;;;;;;;7.46;100.00;99553.00;5024302;28;20033;-80
2022/04/12 05:45:11;;;;;;;10.25;2.80;;;;;;;7.57;100.00;99566.91;5044181;28;20393;-80
2022/04/12 05:47:50;;;;;;;12.52;3.50;;;;;;;7.64;100.00;99573.19;5060717;28;20043;-80
2022/04/12 05:50:17;;;;;;;16.00;4.25;;;;;;;7.66;100.00;99579.19;5057721;28;20047;-79
2022/04/12 05:52:43;;;;;;;12.98;3.10;;;;;;;7.67;100.00;99580.81;5050520;28;20052;-82
2022/04/12 05:55:10;;;;;;;7.38;2.30;;;;;;;7.63;100.00;99579.56;5028529;28;20036;-81
2022/04/12 05:57:38;;;;;;;20.30;4.68;;;;;;;7.72;100.00;99587.28;5026021;28;20044;-80
2022/04/12 06:00:06;;;;;;;7.20;2.17;;;;;;;7.78;100.00;99585.72;5042398;28;20055;-80
2022/04/12 06:02:32;;;;;;;9.00;2.85;;;;;;;7.84;100.00;99592.19;5060670;28;20110;-81
2022/04/12 06:04:58;;;;;;;5.43;2.05;;;;;;;7.87;100.00;99595.31;5044233;28;20098;-80
2022/04/12 06:07:32;;;;;;;17.73;3.95;;;;;;;7.91;100.00;99599.28;5034344;28;20074;-78
2022/04/12 06:09:59;;;;;;;12.32;3.13;;;;;;;7.90;100.00;99594.91;5034683;28;20477;-81
2022/04/12 06:12:25;;;;;;;6.47;1.75;;;;;;;7.96;100.00;99595.19;5066462;28;20033;-80
2022/04/12 06:14:51;;;;;;;15.15;3.88;;;;;;;7.99;100.00;99586.78;5060847;28;20044;-81
2022/04/12 06:17:16;;;;;;;16.52;3.97;;;;;;;8.02;100.00;99597.09;5057744;28;20036;-80
2022/04/12 06:19:42;;;;;;;14.35;2.45;;;;;;;8.07;100.00;99592.88;5058675;28;20037;-79
2022/04/12 06:22:07;;;;;;;19.45;4.22;;;;;;;8.07;100.00;99589.34;5066338;28;20032;-79
2022/04/12 06:24:33;;;;;;;7.30;2.80;;;;;;;8.10;100.00;99587.16;5063205;28;20045;-80
2022/04/12 06:26:59;;;;;;;6.40;2.53;;;;;;;8.18;100.00;99580.00;5069490;28;20560;-79
2022/04/12 06:29:24;;;;;;;4.68;2.38;;;;;;;8.22;100.00;99576.75;5083107;28;20378;-78
2022/04/12 06:31:50;;;;;;;15.40;2.78;;;;;;;8.29;100.00;99575.00;5064488;28;20071;-79
2022/04/12 06:34:15;;;;;;;12.07;3.70;;;;;;;8.26;100.00;99572.69;5075022;28;20039;-78
2022/04/12 06:36:41;;;;;;;8.82;3.08;;;;;;;8.36;100.00;99583.06;5053136;28;20146;-80
2022/04/12 06:39:07;;;;;;;22.73;4.07;;;;;;;8.32;100.00;99579.97;5032805;28;20046;-81
2022/04/12 06:41:33;;;;;;;15.00;3.35;;;;;;;8.35;100.00;99581.44;5059130;28;20044;-78
2022/04/12 06:43:58;;;;;;;12.88;3.67;;;;;;;8.36;100.00;99578.56;5056561;28;20045;-80
2022/04/12 06:46:24;;;;;;;12.10;3.60;;;;;;;8.42;100.00;99586.91;5062255;28;20131;-79
2022/04/12 06:48:49;;;;;;;9.75;3.53;;;;;;;8.40;100.00;99572.88;5056402;28;20870;-80
2022/04/12 06:51:15;;;;;;;9.48;3.45;;;;;;;8.46;100.00;99583.63;5045810;28;20120;-79
2022/04/12 06:53:40;;;;;;;11.52;3.72;;;;;;;8.54;100.00;99583.50;5066363;28;20433;-79
2022/04/12 06:56:06;;;;;;;10.85;4.00;;;;;;;8.59;100.00;99586.44;5027075;28;20029;-79
2022/04/12 06:58:33;;;;;;;9.73;2.72;;;;;;;8.65;100.00;99586.69;5074042;28;20040;-79
2022/04/12 07:00:58;;;;;;;19.17;4.57;;;;;;;8.68;100.00;99589.84;5044046;28;20113;-80
2022/04/12 07:03:24;;;;;;;5.43;2.42;;;;;;;8.71;100.00;99592.13;5043619;28;20072;-79
2022/04/12 07:05:55;;;;;;;5.80;2.78;;;;;;;8.78;100.00;99598.34;5063460;28;20025;-80
2022/04/12 07:08:24;;;;;;;11.45;3.10;;;;;;;8.86;100.00;99602.75;5050388;28;20043;-79
2022/04/12 07:10:51;;;;;;;6.88;3.33;;;;;;;8.91;100.00;99608.38;5057522;28;20028;-79
2022/04/12 07:13:17;;;;;;;9.40;3.42;;;;;;;8.91;100.00;99602.19;5046923;28;20410;-80
2022/04/12 07:15:43;;;;;;;7.15;3.30;;;;;;;8.96;100.00;99610.47;5033146;28;20040;-79
2022/04/12 07:18:10;;;;;;;6.63;3.33;;;;;;;9.00;100.00;99615.28;5059957;28;20032;-80
2022/04/12 07:20:35;;;;;;;6.90;2.50;;;;;;;9.01;100.00;99619.59;5046169;28;20494;-81
2022/04/12 07:23:01;;;;;;;14.23;4.68;;;;;;;9.07;100.00;99628.72;5039351;28;20129;-79
2022/04/12 07:25:27;;;;;;;16.10;5.13;;;;;;;9.06;100.00;99621.69;5048963;28;20363;-80
2022/04/12 07:27:53;;;;;;;15.07;3.92;;;;;;;9.06;100.00;99624.38;5047560;28;20097;-80
2022/04/12 07:30:18;;;;;;;4.68;1.98;;;;;;;9.15;100.00;99633.13;5041109;28;20111;-80
2022/04/12 07:32:44;;;;;;;16.73;5.28;;;;;;;9.07;100.00;99623.34;5036211;28;20068;-81
2022/04/12 07:35:10;;;;;;;7.95;3.42;;;;;;;9.11;100.00;99629.19;5044382;28;20484;-83
2022/04/12 07:37:35;;;;;;;7.78;3.13;;;;;;;9.24;100.00;99648.06;5062957;28;20032;-84
2022/04/12 07:40:02;;;;;;;8.38;4.32;;;;;;;9.29;100.00;99652.81;5037287;28;20444;-84
2022/04/12 07:42:28;;;;;;;10.82;2.67;;;;;;;9.28;100.00;99640.44;5034508;28;20032;-83
2022/04/12 07:44:53;;;;;;;11.40;3.50;;;;;;;9.38;100.00;99655.16;5047817;28;20101;-85
2022/04/12 07:47:19;;;;;;;15.00;5.20;;;;;;;9.41;100.00;99644.03;5051324;28;20075;-85
2022/04/12 07:49:45;;;;;;;17.45;5.07;;;;;;;9.46;100.00;99644.28;5023378;28;20037;-84
2022/04/12 07:52:10;;;;;;;16.63;5.32;;;;;;;9.52;100.00;99648.03;5027723;28;20036;-84
2022/04/12 07:54:36;;;;;;;9.10;4.00;;;;;;;9.52;100.00;99639.16;5067980;28;20037;-84
2022/04/12 07:57:01;;;;;;;15.80;5.15;;;;;;;9.59;100.00;99640.88;5062652;28;20073;-84
2022/04/12 07:59:27;;;;;;;8.07;4.35;;;;;;;9.66;100.00;99640.91;5063445;28;20059;-83
2022/04/12 08:01:52;;;;;;;6.47;3.70;;;;;;;9.71;100.00;99643.00;5032557;28;20115;-85
2022/04/12 08:04:18;;;;;;;10.07;2.83;;;;;;;9.77;100.00;99651.09;5067869;28;20382;-83
2022/04/12 08:06:44;;;;;;;4.68;3.10;;;;;;;9.80;100.00;99652.56;5069957;28;20455;-84
2022/04/12 08:09:09;;;;;;;15.52;4.90;;;;;;;9.81;100.00;99652.34;5062796;28;20058;-84
2022/04/12 08:11:35;;;;;;;17.83;3.97;;;;;;;9.86;100.00;99649.06;5061226;28;20036;-83
2022/04/12 08:14:03;;;;;;;4.90;2.50;;;;;;;9.91;100.00;99652.81;5044607;28;20463;-86
2022/04/12 08:16:28;;;;;;;8.55;3.90;;;;;;;9.94;100.00;99656.13;5058488;28;20111;-86
2022/04/12 08:18:55;;;;;;;13.77;4.88;;;;;;;9.96;100.00;99652.22;5034536;28;20561;-87
2022/04/12 08:21:32;;;;;;;12.20;3.65;;;;;;;9.94;100.00;99651.59;5045450;28;20040;-84
2022/04/12 08:23:58;;;;;;;9.23;3.58;;;;;;;10.04;100.00;99656.59;5073914;28;20590;-86
2022/04/12 08:26:24;;;;;;;13.60;4.75;;;;;;;10.04;100.00;99651.25;5057901;28;20035;-84
2022/04/12 08:28:50;;;;;;;16.45;4.93;;;;;;;10.12;100.00;99654.56;5061838;28;20036;-85
2022/04/12 08:31:15;;;;;;;12.60;4.65;;;;;;;10.05;100.00;99618.78;5051469;28;20123;-85
2022/04/12 08:33:41;;;;;;;18.05;6.35;;;;;;;10.29;100.00;99659.63;5070649;28;20037;-85
2022/04/12 08:36:07;;;;;;;10.32;3.40;;;;;;;10.34;100.00;99651.78;5062477;28;20078;-85
2022/04/12 08:38:32;;;;;;;8.07;3.75;;;;;;;10.45;100.00;99661.97;5052607;28;20036;-83
2022/04/12 08:41:02;;;;;;;13.55;4.10;;;;;;;10.47;100.00;99657.22;5065667;28;20081;-85
2022/04/12 08:43:29;;;;;;;21.00;5.10;;;;;;;10.59;100.00;99662.84;5036879;28;20036;-85
2022/04/12 08:45:55;;;;;;;16.95;5.07;;;;;;;10.66;100.00;99650.22;5051976;28;20477;-85
2022/04/12 08:48:21;;;;;;;13.65;5.20;;;;;;;10.74;100.00;99660.81;5046292;28;20040;-84
2022/04/12 08:50:48;;;;;;;19.38;5.75;;;;;;;10.85;100.00;99658.53;5052611;28;20078;-86
2022/04/12 08:53:15;;;;;;;13.30;4.03;;;;;;;10.88;100.00;99648.22;5067856;28;20025;-83
2022/04/12 08:55:41;;;;;;;3.13;1.65;;;;;;;10.85;100.00;99635.19;5050481;28;20497;-85
2022/04/12 08:58:07;;;;;;;10.18;4.07;;;;;;;11.05;100.00;99653.19;5049248;28;20072;-84
2022/04/12 09:00:32;;;;;;;5.47;2.70;;;;;;;10.93;100.00;99629.59;5061454;28;20108;-79
2022/04/12 09:02:59;;;;;;;16.73;4.47;;;;;;;11.14;100.00;99654.63;5065552;28;20112;-79
2022/04/12 09:05:25;;;;;;;15.85;4.70;;;;;;;11.17;100.00;99660.44;5033613;28;20036;-78
2022/04/12 09:07:51;;;;;;;11.35;3.85;;;;;;;11.23;100.00;99656.91;5061533;28;20090;-79
2022/04/12 09:10:17;;;;;;;22.65;6.20;;;;;;;11.32;100.00;99657.53;5026475;28;20507;-79
2022/04/12 09:12:42;;;;;;;7.85;3.65;;;;;;;11.41;100.00;99656.31;5069288;28;20036;-79
2022/04/12 09:15:14;;;;;;;15.60;5.90;;;;;;;11.50;100.00;99662.28;5043729;28;20475;-78
2022/04/12 09:17:44;;;;;;;19.55;5.55;;;;;;;11.51;100.00;99665.81;5062829;28;20028;-79
2022/04/12 09:20:18;;;;;;;15.68;5.45;;;;;;;11.36;100.00;99641.81;5067882;28;20037;-79
2022/04/12 09:22:46;;;;;;;11.15;4.72;;;;;;;11.50;100.00;99666.84;5035240;28;20058;-79
2022/04/12 09:25:14;;;;;;;9.52;3.15;;;;;;;11.41;100.00;99652.78;5066673;28;20040;-78
2022/04/12 09:27:44;;;;;;;12.55;5.25;;;;;;;11.53;100.00;99666.44;5062580;28;20127;-78
2022/04/12 09:30:11;;;;;;;6.45;3.35;;;;;;;11.60;100.00;99675.34;5066193;28;20036;-79
2022/04/12 09:32:42;;;;;;;9.65;2.50;;;;;;;11.63;100.00;99680.28;5063207;28;20462;-79
2022/04/12 09:35:09;;;;;;;15.55;5.03;;;;;;;11.62;100.00;99673.28;5051223;28;20478;-79
2022/04/12 09:37:36;;;;;;;22.73;4.47;;;;;;;11.69;100.00;99676.75;5032361;28;20414;-79
2022/04/12 09:40:02;;;;;;;19.50;5.28;;;;;;;11.76;100.00;99682.16;5039947;28;20163;-80
2022/04/12 09:42:51;;;;;;;15.20;4.53;;;;;;;11.77;100.00;99684.63;5066155;28;20107;-78
2022/04/12 09:45:30;;;;;;;9.88;3.72;;;;;;;11.88;100.00;99683.16;5058217;28;20413;-78
2022/04/12 09:48:01;;;;;;;16.23;5.32;;;;;;;12.01;100.00;99690.41;5034591;28;20036;-77
2022/04/12 09:50:29;;;;;;;14.57;3.63;;;;;;;12.13;100.00;99685.19;5069051;28;20032;-76
2022/04/12 09:52:57;;;;;;;21.45;6.20;;;;;;;12.02;100.00;99654.34;5070194;28;20079;-78
2022/04/12 09:55:36;;;;;;;14.90;5.57;;;;;;;12.17;100.00;99684.56;5066582;28;20033;-76
2022/04/12 09:58:02;;;;;;;16.27;4.63;;;;;;;12.07;100.00;99693.09;5067774;28;20116;-77
2022/04/12 10:00:32;;;;;;;10.40;4.75;;;;;;;11.98;100.00;99680.06;5051368;28;20094;-76
2022/04/12 10:03:06;;;;;;;13.50;4.85;;;;;;;11.88;100.00;99692.09;5065509;28;20086;-77
2022/04/12 10:05:32;;;;;;;9.30;4.32;;;;;;;11.83;100.00;99688.34;5072014;28;20044;-77
2022/04/12 10:07:59;;;;;;;16.35;5.45;;;;;;;11.76;100.00;99688.34;5035931;28;20040;-77
2022/04/12 10:10:25;;;;;;;12.02;4.93;;;;;;;11.68;100.00;99675.13;5047480;28;20398;-77
2022/04/12 10:12:56;;;;;;;12.98;4.28;;;;;;;11.75;100.00;99681.31;5051949;28;20119;-77
2022/04/12 10:15:22;;;;;;;15.82;4.82;;;;;;;11.77;100.00;99690.00;5070272;28;20032;-77
2022/04/12 10:17:51;;;;;;;8.15;4.22;;;;;;;11.90;100.00;99685.66;5051819;28;20071;-77
2022/04/12 10:20:18;;;;;;;7.93;3.65;;;;;;;12.01;100.00;99674.22;5070425;28;20059;-77
2022/04/12 10:22:44;;;;;;;11.65;3.78;;;;;;;12.05;100.00;99673.59;5053852;28;20045;-76
2022/04/12 10:25:12;;;;;;;13.73;4.47;;;;;;;12.25;100.00;99684.34;5070612;28;20040;-77
2022/04/12 10:27:37;;;;;;;14.30;4.05;;;;;;;12.42;100.00;99681.16;5050089;28;20072;-76
2022/04/12 10:30:15;;;;;;;14.13;5.22;;;;;;;12.54;100.00;99682.97;5068193;28;20041;-77
2022/04/12 10:33:04;;;;;;;7.43;2.97;;;;;;;12.59;100.00;99682.28;5072042;28;20034;-77
2022/04/12 10:35:54;;;;;;;12.65;4.78;;;;;;;12.67;100.00;99686.63;5068730;28;20078;-78
2022/04/12 10:38:24;;;;;;;19.65;5.38;;;;;;;12.66;100.00;99693.88;5077512;28;20555;-78
2022/04/12 10:40:54;;;;;;;11.70;3.85;;;;;;;12.62;100.00;99689.13;5037279;28;20475;-77
2022/04/12 10:43:33;;;;;;;20.13;5.47;;;;;;;12.58;100.00;99685.22;5049559;28;20032;-77
2022/04/12 10:46:00;;;;;;;18.90;5.65;;;;;;;12.61;100.00;99684.78;5072650;28;20064;-78
2022/04/12 10:48:30;;;;;;;21.52;5.03;;;;;;;12.63;100.00;99697.00;5054888;28;20115;-77
2022/04/12 10:50:58;;;;;;;12.27;4.20;;;;;;;12.57;100.00;99699.72;5054569;28;20055;-78
2022/04/12 10:53:54;;;;;;;9.48;3.33;;;;;;;12.56;100.00;99696.22;5037305;28;20051;-77
2022/04/12 10:56:24;;;;;;;20.30;5.32;;;;;;;12.40;100.00;99683.22;5062840;28;20049;-77
2022/04/12 10:58:49;;;;;;;13.95;4.60;;;;;;;12.32;100.00;99690.50;5067971;28;20536;-77
2022/04/12 11:01:35;;;;;;;13.25;5.75;;;;;;;12.40;100.00;99705.63;5068065;28;20064;-78
2022/04/12 11:04:04;;;;;;;15.63;4.25;;;;;;;12.43;100.00;99702.50;5061555;28;20041;-78
2022/04/12 11:06:33;;;;;;;18.50;5.38;;;;;;;12.50;100.00;99700.59;5053928;28;20032;-79
2022/04/12 11:09:16;;;;;;;12.77;5.05;;;;;;;12.61;100.00;99695.56;5052957;28;20040;-77
2022/04/12 11:11:50;;;;;;;7.28;2.42;;;;;;;12.75;100.00;99691.75;5067625;28;20024;-78
2022/04/12 11:14:25;;;;;;;9.50;3.45;;;;;;;12.88;100.00;99707.03;5077473;28;20070;-77
2022/04/12 11:16:55;;;;;;;14.45;5.90;;;;;;;12.93;100.00;99707.22;5066729;28;20094;-78
2022/04/12 11:19:22;;;;;;;15.48;4.65;;;;;;;13.11;100.00;99701.91;5053997;28;20504;-77
2022/04/12 11:21:51;;;;;;;15.60;5.20;;;;;;;13.44;100.00;99708.13;5052419;28;20028;-77
2022/04/12 11:24:17;;;;;;;12.65;4.93;;;;;;;13.64;100.00;99706.91;5061098;28;20035;-79
2022/04/12 11:26:52;;;;;;;17.42;5.05;;;;;;;13.79;100.00;99712.00;5063344;28;20032;-78